Mehtap Bayraktar — TCPB — position and weather

sailwx.info

Track history (hours):
 
Tides and Currents Weather Stations Pressure Air Temp Water Temp Dewpoint Dewpoint Depression Visibility Wind Speed Wind Dir Waves Ship Positions

Mehtap Bayraktar

Last reported at 2017-Oct-07 04:39 UTC. Time now 2017-Oct-17 19:18 UTC.
Position N 37°03' E 013°42'.
Warning: this ship's position is 10 days out of date.

Length 114 m; draft 7.2 m.

Type: Cargo ship. MMSI: 271000578.

Date/timePositionNaut miles runAvg speedWind from/ knotsBaromVisibWave heightAir tempDewpointWater temp
2017-Oct-07 04:39N 37°03' E 013°42'1 7.2
2017-Oct-07 04:30N 37°02' E 013°43'3 6.9
2017-Oct-07 04:00N 37°00' E 013°47'3 6.6
2017-Oct-07 03:30N 36°58' E 013°50'3 6.6
2017-Oct-07 03:00N 36°57' E 013°54'4 7.0
2017-Oct-07 02:30N 36°55' E 013°57'3 6.9
2017-Oct-07 02:00N 36°53' E 014°01'4 7.5
2017-Oct-07 01:30N 36°51' E 014°05'4 7.5
2017-Oct-07 01:00N 36°49' E 014°09'4 8.2
2017-Oct-07 00:30N 36°47' E 014°14'4 8.7
2017-Oct-07 00:00N 36°45' E 014°18'5 9.3
2017-Oct-06 23:30N 36°43' E 014°24'5 9.8
2017-Oct-06 23:00N 36°42' E 014°29'5 9.8
2017-Oct-06 22:31N 36°41' E 014°35'49111.0
2017-Oct-05 01:46N 37°14' E 024°48'312.1
2017-Oct-05 01:31N 37°15' E 024°51'612.1
2017-Oct-05 01:00N 37°19' E 024°57'812.3
2017-Oct-05 00:23N 37°24' E 025°05'512.3
2017-Oct-05 00:01N 37°27' E 025°09'611.9
2017-Oct-04 23:31N 37°31' E 025°15'612.0
2017-Oct-04 23:01N 37°34' E 025°21'611.6
2017-Oct-04 22:30N 37°38' E 025°27'611.4
2017-Oct-04 22:00N 37°42' E 025°32'611.4
2017-Oct-04 21:30N 37°46' E 025°37'  
Track history (hours):
 
Tides and Currents Weather Stations Pressure Air Temp Water Temp Dewpoint Dewpoint Depression Visibility Wind Speed Wind Dir Waves Ship Positions

Mehtap Bayraktar

Last reported at 2017-Oct-07 04:39 UTC. Time now 2017-Oct-17 19:18 UTC.
Position N 37°03' E 013°42'.
Warning: this ship's position is 10 days out of date.

Length 114 m; draft 7.2 m.

Type: Cargo ship. MMSI: 271000578.

Date/timePositionNaut miles runAvg speedWind from/ knotsBaromVisibWave heightAir tempDewpointWater temp
2017-Oct-07 04:39N 37°03' E 013°42'1 7.2
2017-Oct-07 04:30N 37°02' E 013°43'3 6.9
2017-Oct-07 04:00N 37°00' E 013°47'3 6.6
2017-Oct-07 03:30N 36°58' E 013°50'3 6.6
2017-Oct-07 03:00N 36°57' E 013°54'4 7.0
2017-Oct-07 02:30N 36°55' E 013°57'3 6.9
2017-Oct-07 02:00N 36°53' E 014°01'4 7.5
2017-Oct-07 01:30N 36°51' E 014°05'4 7.5
2017-Oct-07 01:00N 36°49' E 014°09'4 8.2
2017-Oct-07 00:30N 36°47' E 014°14'4 8.7
2017-Oct-07 00:00N 36°45' E 014°18'5 9.3
2017-Oct-06 23:30N 36°43' E 014°24'5 9.8
2017-Oct-06 23:00N 36°42' E 014°29'5 9.8
2017-Oct-06 22:31N 36°41' E 014°35'49111.0
2017-Oct-05 01:46N 37°14' E 024°48'312.1
2017-Oct-05 01:31N 37°15' E 024°51'612.1
2017-Oct-05 01:00N 37°19' E 024°57'812.3
2017-Oct-05 00:23N 37°24' E 025°05'512.3
2017-Oct-05 00:01N 37°27' E 025°09'611.9
2017-Oct-04 23:31N 37°31' E 025°15'612.0
2017-Oct-04 23:01N 37°34' E 025°21'611.6
2017-Oct-04 22:30N 37°38' E 025°27'611.4
2017-Oct-04 22:00N 37°42' E 025°32'611.4
2017-Oct-04 21:30N 37°46' E 025°37'  

Dump ship's entire track history